createdAt,value
2019-04-25T00:00:48.360Z,0.70
2019-04-25T00:03:29.142Z,0.60
2019-04-25T00:06:02.635Z,1.00
2019-04-25T00:08:37.333Z,0.90
2019-04-25T00:11:12.571Z,1.20
2019-04-25T00:13:45.988Z,0.90
2019-04-25T00:16:21.711Z,0.90
2019-04-25T00:18:55.500Z,0.80
2019-04-25T00:21:32.049Z,1.10
2019-04-25T00:24:23.928Z,0.80
2019-04-25T00:26:57.513Z,0.83
2019-04-25T00:29:31.864Z,0.83
2019-04-25T00:32:05.976Z,0.80
2019-04-25T00:34:40.592Z,0.80
2019-04-25T00:37:14.547Z,0.90
2019-04-25T00:39:47.988Z,0.80
2019-04-25T00:42:23.098Z,0.93
2019-04-25T00:44:56.786Z,0.83
2019-04-25T00:47:31.461Z,0.70
2019-04-25T00:50:06.372Z,1.20
2019-04-25T00:52:41.447Z,0.80
2019-04-25T00:55:26.067Z,0.80
2019-04-25T00:57:52.803Z,0.90
2019-04-25T01:01:02.898Z,0.90
2019-04-25T01:03:36.784Z,1.00
2019-04-25T01:06:11.953Z,0.90
2019-04-25T01:08:45.856Z,0.97
2019-04-25T01:11:19.471Z,0.90
2019-04-25T01:13:53.361Z,1.00
2019-04-25T01:16:26.996Z,1.40
2019-04-25T01:19:00.509Z,0.90
2019-04-25T01:21:34.055Z,1.00
2019-04-25T01:24:08.136Z,1.10
2019-04-25T01:26:41.935Z,0.90
2019-04-25T01:29:15.828Z,1.10
2019-04-25T01:31:50.102Z,1.03
2019-04-25T01:34:25.791Z,0.90
2019-04-25T01:37:01.167Z,0.90
2019-04-25T01:39:36.217Z,0.90
2019-04-25T01:42:19.910Z,1.00
2019-04-25T01:44:54.225Z,1.00
2019-04-25T01:47:28.616Z,1.20
2019-04-25T01:50:03.797Z,1.30
2019-04-25T01:52:37.196Z,0.90
2019-04-25T01:55:11.055Z,1.13
2019-04-25T01:57:45.351Z,0.87
2019-04-25T02:00:21.054Z,1.30
2019-04-25T02:02:55.796Z,1.80
2019-04-25T02:05:29.763Z,1.40
2019-04-25T02:08:04.395Z,1.10
2019-04-25T02:10:38.354Z,1.10
2019-04-25T02:13:13.861Z,1.10
2019-04-25T02:15:47.680Z,1.10
2019-04-25T02:18:21.113Z,1.30
2019-04-25T02:20:57.913Z,1.17
2019-04-25T02:23:29.832Z,1.13
2019-04-25T02:26:15.668Z,1.10
2019-04-25T02:28:38.620Z,0.90
2019-04-25T02:31:12.041Z,1.10
2019-04-25T02:33:45.461Z,1.00
2019-04-25T02:36:18.991Z,0.90
2019-04-25T02:38:55.188Z,1.00
2019-04-25T02:41:27.603Z,0.90
2019-04-25T02:44:05.994Z,1.10
2019-04-25T02:46:40.888Z,1.40
2019-04-25T02:49:32.685Z,1.03
2019-04-25T02:52:07.766Z,1.20
2019-04-25T02:54:41.040Z,1.30
2019-04-25T02:57:14.689Z,1.40
2019-04-25T02:59:48.494Z,1.70
2019-04-25T03:02:21.989Z,1.30
2019-04-25T03:04:57.545Z,1.20
2019-04-25T03:07:30.603Z,1.23
2019-04-25T03:10:09.362Z,1.40
2019-04-25T03:12:44.530Z,1.33
2019-04-25T03:15:17.734Z,1.27
2019-04-25T03:17:51.643Z,1.40
2019-04-25T03:20:26.947Z,1.20
2019-04-25T03:23:03.540Z,1.50
2019-04-25T03:25:37.291Z,1.60
2019-04-25T03:28:10.721Z,1.40
2019-04-25T03:30:45.027Z,1.27
2019-04-25T03:33:19.847Z,1.43
2019-04-25T03:35:54.435Z,1.50
2019-04-25T03:38:27.876Z,1.30
2019-04-25T03:41:01.289Z,1.33
2019-04-25T03:43:34.718Z,1.40
2019-04-25T03:46:08.315Z,1.57
2019-04-25T03:48:42.039Z,1.80
2019-04-25T03:51:15.777Z,1.30
2019-04-25T03:53:49.463Z,1.70
2019-04-25T03:56:22.881Z,2.53
2019-04-25T03:58:56.375Z,1.60
2019-04-25T04:01:29.792Z,1.50
2019-04-25T04:04:05.754Z,1.70
2019-04-25T04:06:38.397Z,1.90
2019-04-25T04:09:11.878Z,1.60
2019-04-25T04:11:45.610Z,1.63
2019-04-25T04:14:39.905Z,1.70
2019-04-25T04:17:17.903Z,1.50
2019-04-25T04:20:01.775Z,1.80
2019-04-25T04:22:49.083Z,2.10
2019-04-25T04:25:23.605Z,1.60
2019-04-25T04:27:57.275Z,1.70
2019-04-25T04:30:30.775Z,2.00
2019-04-25T04:33:04.268Z,1.80
2019-04-25T04:35:37.696Z,2.10
2019-04-25T04:38:11.648Z,2.40
2019-04-25T04:40:45.339Z,2.00
2019-04-25T04:43:18.746Z,1.70
2019-04-25T04:45:52.183Z,2.30
2019-04-25T04:48:25.611Z,2.30
2019-04-25T04:50:59.044Z,2.30
2019-04-25T04:53:35.595Z,2.30
2019-04-25T04:56:07.612Z,2.20
2019-04-25T04:58:41.029Z,2.10
2019-04-25T05:01:16.709Z,2.07
2019-04-25T05:03:51.833Z,3.17
2019-04-25T05:06:36.012Z,2.10
2019-04-25T05:09:15.305Z,2.10
2019-04-25T05:11:49.194Z,6.07
2019-04-25T05:14:24.266Z,2.43
2019-04-25T05:16:57.780Z,2.03
2019-04-25T05:19:31.226Z,3.73
2019-04-25T05:22:04.643Z,2.07
2019-04-25T05:24:38.064Z,2.13
2019-04-25T05:27:12.773Z,2.00
2019-04-25T05:29:46.664Z,2.10
2019-04-25T05:32:20.102Z,2.40
2019-04-25T05:34:53.519Z,2.20
2019-04-25T05:37:26.947Z,2.67
2019-04-25T05:40:00.360Z,2.40
2019-04-25T05:42:47.460Z,2.40
2019-04-25T05:45:23.831Z,2.27
2019-04-25T05:47:57.692Z,2.87
2019-04-25T05:50:50.467Z,2.50
2019-04-25T05:53:24.232Z,2.37
2019-04-25T05:55:58.686Z,2.67
2019-04-25T05:58:33.627Z,2.47
2019-04-25T06:01:07.421Z,2.67
2019-04-25T06:03:40.851Z,2.80
2019-04-25T06:06:14.274Z,3.20
2019-04-25T06:08:49.349Z,2.97
2019-04-25T06:11:27.135Z,2.70
2019-04-25T06:14:03.373Z,2.60
2019-04-25T06:16:37.542Z,2.77
2019-04-25T06:19:16.365Z,2.57
2019-04-25T06:21:49.056Z,2.90
2019-04-25T06:24:27.386Z,2.30
2019-04-25T06:27:11.511Z,2.40
2019-04-25T06:29:57.754Z,3.27
2019-04-25T06:32:23.177Z,2.23
2019-04-25T06:34:58.489Z,1.97
2019-04-25T06:37:33.605Z,2.10
2019-04-25T06:40:08.502Z,2.37
2019-04-25T06:42:43.445Z,1.70
2019-04-25T06:45:38.204Z,1.70
2019-04-25T06:48:19.379Z,1.53
2019-04-25T06:50:53.728Z,2.13
2019-04-25T06:53:27.307Z,2.40
2019-04-25T06:56:00.787Z,3.20
2019-04-25T06:58:34.482Z,2.10
2019-04-25T07:01:07.903Z,3.80
2019-04-25T07:03:41.344Z,3.33
2019-04-25T07:06:14.893Z,3.10
2019-04-25T07:08:48.666Z,2.47
2019-04-25T07:11:23.833Z,2.00
2019-04-25T07:13:57.233Z,2.40
2019-04-25T07:16:31.480Z,2.30
2019-04-25T07:19:06.225Z,2.80
2019-04-25T07:21:39.639Z,2.10
2019-04-25T07:24:14.510Z,2.13
2019-04-25T07:27:01.880Z,2.17
2019-04-25T07:29:53.893Z,2.10
2019-04-25T07:32:34.874Z,1.90
2019-04-25T07:35:08.958Z,2.07
2019-04-25T07:37:44.086Z,2.33
2019-04-25T07:40:18.731Z,2.03
2019-04-25T07:42:53.599Z,1.70
2019-04-25T07:45:27.531Z,1.60
2019-04-25T07:48:00.943Z,1.77
2019-04-25T07:50:35.395Z,1.70
2019-04-25T07:53:08.972Z,1.70
2019-04-25T07:55:43.303Z,1.73
2019-04-25T07:58:17.124Z,1.73
2019-04-25T08:00:50.561Z,1.80
2019-04-25T08:03:23.962Z,1.77
2019-04-25T08:05:57.401Z,1.80
2019-04-25T08:08:31.780Z,1.73
2019-04-25T08:11:08.132Z,2.10
2019-04-25T08:13:53.369Z,1.80
2019-04-25T08:16:28.850Z,1.50
2019-04-25T08:19:04.270Z,1.50
2019-04-25T08:21:38.409Z,1.23
2019-04-25T08:24:12.147Z,1.40
2019-04-25T08:26:45.609Z,1.13
2019-04-25T08:29:19.018Z,1.20
2019-04-25T08:31:53.496Z,1.47
2019-04-25T08:34:27.264Z,1.30
2019-04-25T08:37:00.687Z,1.30
2019-04-25T08:39:36.935Z,1.30
2019-04-25T08:42:09.260Z,1.30
2019-04-25T08:44:43.737Z,1.00
2019-04-25T08:47:17.827Z,1.30
2019-04-25T08:50:04.750Z,3.60
2019-04-25T08:52:38.190Z,1.43
2019-04-25T08:55:19.051Z,1.50
2019-04-25T08:58:00.044Z,1.30
2019-04-25T09:00:36.158Z,1.30
2019-04-25T09:03:14.258Z,1.47
2019-04-25T09:05:49.038Z,1.30
2019-04-25T09:08:24.056Z,2.03
2019-04-25T09:10:57.841Z,1.00
2019-04-25T09:13:31.255Z,1.10
2019-04-25T09:16:04.760Z,1.20
2019-04-25T09:18:38.221Z,1.10
2019-04-25T09:21:11.683Z,1.17
2019-04-25T09:23:45.105Z,1.10
2019-04-25T09:26:18.603Z,1.73
2019-04-25T09:28:53.693Z,1.10
2019-04-25T09:31:27.315Z,1.20
2019-04-25T09:34:00.722Z,1.00
2019-04-25T09:36:34.171Z,0.90
2019-04-25T09:39:19.891Z,0.93
2019-04-25T09:41:53.590Z,1.33
2019-04-25T09:44:31.771Z,1.20
2019-04-25T09:47:06.319Z,1.07
2019-04-25T09:49:41.597Z,0.90
2019-04-25T09:52:16.792Z,1.30
2019-04-25T09:55:19.892Z,1.10
2019-04-25T09:57:54.959Z,1.13
2019-04-25T10:00:30.079Z,1.10
2019-04-25T10:03:04.666Z,1.10
2019-04-25T10:05:38.461Z,1.50
2019-04-25T10:08:13.451Z,1.40
2019-04-25T10:10:47.427Z,1.50
2019-04-25T10:13:20.847Z,1.10
2019-04-25T10:16:06.181Z,1.03
2019-04-25T10:18:41.333Z,1.37
2019-04-25T10:21:15.417Z,1.20
2019-04-25T10:23:51.123Z,1.43
2019-04-25T10:26:25.607Z,1.40
2019-04-25T10:28:59.040Z,1.40
2019-04-25T10:31:33.879Z,1.10
2019-04-25T10:34:07.456Z,1.27
2019-04-25T10:36:42.137Z,1.20
2019-04-25T10:39:16.214Z,1.17
2019-04-25T10:41:49.748Z,1.50
2019-04-25T10:44:24.550Z,1.17
2019-04-25T10:46:58.181Z,1.10
2019-04-25T10:49:31.609Z,0.90
2019-04-25T10:52:06.664Z,0.83
2019-04-25T10:54:41.189Z,1.00
2019-04-25T10:57:15.267Z,1.10
2019-04-25T11:00:02.519Z,1.00
2019-04-25T11:02:24.113Z,0.77
2019-04-25T11:05:04.756Z,0.87
2019-04-25T11:07:38.166Z,1.00
2019-04-25T11:10:13.959Z,1.00
2019-04-25T11:12:47.672Z,0.90
2019-04-25T11:15:22.991Z,1.10
2019-04-25T11:17:56.721Z,0.90
2019-04-25T11:20:31.515Z,0.90
2019-04-25T11:23:04.988Z,1.00
2019-04-25T11:25:38.415Z,1.00
2019-04-25T11:28:11.831Z,1.10
2019-04-25T11:30:47.435Z,1.20
2019-04-25T11:33:20.857Z,1.10
2019-04-25T11:35:56.210Z,1.30
2019-04-25T11:38:46.067Z,1.23
2019-04-25T11:41:21.120Z,0.90
2019-04-25T11:43:55.668Z,0.77
2019-04-25T11:46:29.825Z,1.00
2019-04-25T11:49:04.454Z,0.67
2019-04-25T11:51:38.193Z,1.87
2019-04-25T11:54:11.620Z,1.10
2019-04-25T11:56:46.079Z,0.90
2019-04-25T11:59:20.259Z,0.87
2019-04-25T12:01:54.773Z,0.80
2019-04-25T12:04:28.830Z,1.20
2019-04-25T12:07:04.203Z,1.10
2019-04-25T12:09:37.408Z,1.40
2019-04-25T12:12:10.841Z,0.90
2019-04-25T12:14:45.148Z,0.90
2019-04-25T12:17:19.402Z,0.97
2019-04-25T12:19:54.589Z,1.10
2019-04-25T12:22:27.980Z,1.20
2019-04-25T12:25:01.403Z,0.80
2019-04-25T12:27:34.828Z,0.80
2019-04-25T12:30:09.197Z,0.80
2019-04-25T12:32:44.171Z,1.33
2019-04-25T12:35:17.759Z,0.80
2019-04-25T12:37:52.167Z,0.70
2019-04-25T12:40:26.344Z,0.90
2019-04-25T12:42:59.822Z,0.90
2019-04-25T12:45:37.620Z,1.20
2019-04-25T12:48:14.420Z,1.23
2019-04-25T12:50:47.972Z,0.80
2019-04-25T12:53:21.482Z,0.90
2019-04-25T12:55:54.983Z,0.67
2019-04-25T12:58:28.408Z,0.90
2019-04-25T13:01:01.932Z,0.80
2019-04-25T13:03:35.376Z,1.13
2019-04-25T13:06:08.804Z,1.00
2019-04-25T13:08:42.214Z,0.60
2019-04-25T13:11:15.643Z,0.90
2019-04-25T13:13:49.055Z,1.00
2019-04-25T13:16:24.245Z,1.00
2019-04-25T13:19:09.340Z,0.83
2019-04-25T13:21:33.404Z,0.77
2019-04-25T13:24:07.095Z,0.70
2019-04-25T13:26:50.973Z,0.80
2019-04-25T13:29:33.209Z,0.80
2019-04-25T13:32:08.654Z,0.70
2019-04-25T13:34:45.022Z,0.77
2019-04-25T13:37:19.047Z,0.77
2019-04-25T13:39:53.972Z,0.80
2019-04-25T13:42:27.626Z,0.80
2019-04-25T13:45:01.052Z,0.90
2019-04-25T13:47:34.756Z,0.90
2019-04-25T13:50:08.615Z,0.63
2019-04-25T13:52:43.255Z,0.73
2019-04-25T13:55:16.743Z,0.90
2019-04-25T13:57:50.176Z,1.00
2019-04-25T14:00:26.039Z,0.93
2019-04-25T14:02:59.736Z,0.87
2019-04-25T14:05:35.202Z,0.77
2019-04-25T14:08:08.847Z,0.80
2019-04-25T14:10:42.263Z,0.67
2019-04-25T14:13:15.859Z,0.90
2019-04-25T14:15:50.936Z,0.60
2019-04-25T14:18:26.541Z,0.80
2019-04-25T14:21:04.156Z,1.10
2019-04-25T14:23:37.587Z,0.90
2019-04-25T14:26:11.879Z,1.47
2019-04-25T14:28:45.312Z,0.90
2019-04-25T14:31:35.334Z,1.05
2019-04-25T14:33:55.757Z,0.72
2019-04-25T14:36:30.140Z,0.78
2019-04-25T14:39:05.751Z,0.80
2019-04-25T14:41:39.174Z,0.80
2019-04-25T14:44:12.606Z,0.70
2019-04-25T14:46:46.033Z,0.90
2019-04-25T14:49:19.452Z,0.80
2019-04-25T14:51:52.863Z,0.87
2019-04-25T14:54:30.734Z,0.90
2019-04-25T14:57:06.307Z,0.80
2019-04-25T14:59:39.740Z,0.90
2019-04-25T15:02:13.289Z,0.70
2019-04-25T15:04:47.648Z,1.10
2019-04-25T15:07:21.059Z,0.70
2019-04-25T15:09:54.487Z,0.83
2019-04-25T15:12:27.907Z,0.80
2019-04-25T15:15:01.344Z,1.60
2019-04-25T15:17:45.168Z,0.97
2019-04-25T15:20:10.547Z,1.23
2019-04-25T15:22:43.954Z,1.00
2019-04-25T15:25:17.386Z,0.90
2019-04-25T15:27:50.808Z,1.00
2019-04-25T15:30:29.000Z,0.90
2019-04-25T15:33:01.188Z,1.07
2019-04-25T15:35:39.231Z,1.00
2019-04-25T15:38:24.578Z,1.07
2019-04-25T15:41:06.239Z,0.80
2019-04-25T15:43:41.304Z,1.00
2019-04-25T15:46:20.448Z,0.80
2019-04-25T15:48:53.869Z,1.07
2019-04-25T15:51:27.300Z,1.10
2019-04-25T15:54:00.709Z,1.00
2019-04-25T15:56:34.671Z,1.00
2019-04-25T15:59:08.312Z,1.00
2019-04-25T16:01:41.756Z,1.23
2019-04-25T16:04:15.230Z,1.03
2019-04-25T16:06:48.661Z,1.17
2019-04-25T16:09:22.141Z,0.93
2019-04-25T16:11:55.573Z,0.90
2019-04-25T16:14:28.983Z,1.27
2019-04-25T16:17:02.407Z,1.00
2019-04-25T16:19:36.789Z,1.07
2019-04-25T16:22:10.427Z,1.03
2019-04-25T16:24:43.843Z,1.03
2019-04-25T16:27:17.342Z,0.90
2019-04-25T16:29:50.783Z,1.07
2019-04-25T16:32:25.076Z,1.23
2019-04-25T16:34:58.507Z,1.00
2019-04-25T16:37:32.442Z,1.17
2019-04-25T16:40:07.549Z,1.10
2019-04-25T16:42:41.897Z,1.20
2019-04-25T16:45:15.463Z,1.00
2019-04-25T16:47:48.870Z,1.00
2019-04-25T16:50:22.985Z,1.30
2019-04-25T16:52:56.404Z,1.10
2019-04-25T16:55:30.763Z,1.40
2019-04-25T16:58:05.325Z,1.30
2019-04-25T17:00:40.790Z,1.20
2019-04-25T17:03:16.317Z,1.13
2019-04-25T17:05:49.747Z,1.47
2019-04-25T17:08:23.445Z,1.47
2019-04-25T17:10:57.199Z,1.20
2019-04-25T17:13:32.260Z,1.60
2019-04-25T17:16:18.845Z,1.50
2019-04-25T17:19:05.852Z,1.30
2019-04-25T17:21:39.280Z,1.40
2019-04-25T17:24:12.686Z,1.00
2019-04-25T17:26:46.204Z,1.30
2019-04-25T17:29:20.796Z,1.27
2019-04-25T17:32:11.840Z,1.30
2019-04-25T17:34:49.546Z,1.10
2019-04-25T17:37:31.011Z,1.30
2019-04-25T17:40:17.299Z,1.00
2019-04-25T17:42:50.722Z,1.10
2019-04-25T17:45:25.786Z,1.40
2019-04-25T17:47:59.280Z,1.40
2019-04-25T17:50:32.955Z,1.43
2019-04-25T17:53:06.607Z,1.20
2019-04-25T17:55:40.026Z,1.57
2019-04-25T17:58:13.446Z,1.40
2019-04-25T18:00:47.895Z,1.67
2019-04-25T18:03:21.327Z,1.50
2019-04-25T18:05:54.811Z,1.60
2019-04-25T18:08:28.242Z,1.40
2019-04-25T18:11:01.731Z,1.50
2019-04-25T18:13:38.236Z,1.83
2019-04-25T18:16:21.116Z,1.50
2019-04-25T18:18:56.175Z,1.70
2019-04-25T18:21:29.601Z,1.47
2019-04-25T18:24:20.557Z,1.70
2019-04-25T18:27:07.704Z,1.83
2019-04-25T18:29:41.653Z,1.40
2019-04-25T18:32:15.416Z,1.30
2019-04-25T18:34:59.595Z,2.10
2019-04-25T18:37:53.059Z,1.50
2019-04-25T18:40:44.052Z,1.40
2019-04-25T18:43:19.247Z,2.70
2019-04-25T18:46:06.511Z,1.67
2019-04-25T18:48:40.691Z,1.63
2019-04-25T18:51:14.279Z,1.53
2019-04-25T18:54:05.783Z,2.70
2019-04-25T18:56:43.823Z,1.80
2019-04-25T18:59:24.587Z,2.17
2019-04-25T19:01:59.635Z,1.70
2019-04-25T19:04:38.260Z,1.70
2019-04-25T19:07:22.059Z,1.90
2019-04-25T19:09:47.600Z,1.87
2019-04-25T19:12:21.383Z,2.93
2019-04-25T19:14:54.816Z,1.77
2019-04-25T19:17:28.235Z,1.73
2019-04-25T19:20:01.668Z,2.00
2019-04-25T19:22:35.077Z,1.80
2019-04-25T19:25:08.650Z,3.70
2019-04-25T19:27:42.132Z,2.60
2019-04-25T19:30:17.667Z,1.90
2019-04-25T19:32:51.604Z,2.00
2019-04-25T19:35:25.106Z,1.90
2019-04-25T19:37:58.896Z,2.00
2019-04-25T19:40:36.523Z,1.93
2019-04-25T19:43:28.165Z,1.80
2019-04-25T19:46:01.586Z,1.90
2019-04-25T19:48:35.007Z,2.27
2019-04-25T19:51:08.438Z,3.70
2019-04-25T19:53:42.996Z,2.10
2019-04-25T19:56:16.655Z,2.30
2019-04-25T19:58:50.730Z,2.47
2019-04-25T20:01:24.552Z,2.00
2019-04-25T20:03:59.611Z,1.70
2019-04-25T20:06:40.308Z,1.97
2019-04-25T20:09:31.663Z,1.60
2019-04-25T20:12:05.091Z,1.53
2019-04-25T20:14:38.509Z,1.50
2019-04-25T20:17:11.936Z,1.53
2019-04-25T20:19:45.925Z,1.53
2019-04-25T20:22:19.664Z,1.37
2019-04-25T20:24:53.078Z,1.23
2019-04-25T20:27:26.509Z,1.60
2019-04-25T20:29:59.927Z,1.53
2019-04-25T20:32:33.426Z,1.40
2019-04-25T20:35:07.616Z,1.30
2019-04-25T20:37:41.135Z,1.20
2019-04-25T20:40:14.558Z,1.30
2019-04-25T20:42:48.086Z,1.10
2019-04-25T20:45:22.047Z,1.30
2019-04-25T20:47:55.462Z,1.30
2019-04-25T20:50:28.881Z,1.53
2019-04-25T20:53:02.376Z,1.13
2019-04-25T20:55:35.868Z,1.60
2019-04-25T20:58:09.378Z,1.50
2019-04-25T21:00:45.270Z,1.60
2019-04-25T21:03:18.702Z,1.07
2019-04-25T21:05:53.755Z,1.10
2019-04-25T21:08:27.198Z,1.00
2019-04-25T21:11:00.602Z,0.93
2019-04-25T21:13:38.528Z,0.90
2019-04-25T21:16:30.128Z,1.60
2019-04-25T21:19:05.194Z,1.13
2019-04-25T21:21:38.689Z,1.03
2019-04-25T21:24:12.291Z,0.87
2019-04-25T21:26:45.796Z,1.00
2019-04-25T21:29:19.295Z,1.20
2019-04-25T21:31:52.954Z,0.77
2019-04-25T21:34:29.370Z,0.80
2019-04-25T21:37:01.871Z,0.90
2019-04-25T21:39:37.358Z,0.80
2019-04-25T21:42:15.418Z,0.80
2019-04-25T21:44:49.023Z,0.90
2019-04-25T21:47:22.446Z,1.00
2019-04-25T21:49:56.558Z,1.03
2019-04-25T21:52:30.466Z,0.80
2019-04-25T21:55:05.700Z,0.87
2019-04-25T21:57:39.580Z,0.70
2019-04-25T22:00:15.555Z,0.80
2019-04-25T22:02:49.444Z,0.90
2019-04-25T22:05:23.054Z,0.83
2019-04-25T22:07:56.939Z,0.67
2019-04-25T22:10:30.543Z,0.50
2019-04-25T22:13:13.248Z,0.80
2019-04-25T22:15:39.122Z,0.93
2019-04-25T22:18:12.599Z,0.70
2019-04-25T22:20:46.140Z,0.77
2019-04-25T22:23:20.136Z,0.70
2019-04-25T22:25:54.035Z,1.43
2019-04-25T22:28:28.768Z,0.80
2019-04-25T22:31:05.278Z,0.70
2019-04-25T22:33:57.178Z,0.70
2019-04-25T22:36:31.170Z,0.70
2019-04-25T22:39:13.873Z,0.57
2019-04-25T22:41:49.497Z,0.63
2019-04-25T22:44:23.096Z,0.67
2019-04-25T22:46:56.906Z,0.80
2019-04-25T22:49:30.319Z,0.77
2019-04-25T22:52:03.748Z,0.70
2019-04-25T22:54:37.257Z,0.73
2019-04-25T22:57:10.675Z,0.73
2019-04-25T22:59:44.296Z,0.63
2019-04-25T23:02:22.052Z,0.70
2019-04-25T23:05:05.419Z,0.60
2019-04-25T23:07:32.697Z,0.87
2019-04-25T23:10:08.325Z,0.73
2019-04-25T23:12:42.140Z,0.70
2019-04-25T23:15:16.013Z,0.70
2019-04-25T23:17:49.427Z,0.80
2019-04-25T23:20:23.301Z,0.80
2019-04-25T23:22:56.728Z,0.80
2019-04-25T23:25:31.799Z,0.80
2019-04-25T23:28:07.790Z,0.80
2019-04-25T23:30:43.400Z,0.80
2019-04-25T23:33:16.844Z,0.90
2019-04-25T23:35:51.519Z,0.80
2019-04-25T23:38:24.939Z,0.80
2019-04-25T23:40:58.370Z,1.13
2019-04-25T23:43:31.786Z,0.60
2019-04-25T23:46:05.713Z,0.80
2019-04-25T23:48:39.654Z,0.70
2019-04-25T23:51:13.270Z,0.87
2019-04-25T23:53:47.163Z,0.70
2019-04-25T23:56:20.596Z,0.90
2019-04-25T23:58:54.291Z,0.63
